KLOM

Details ICAO KLOM (BBX)
Name Wings Field
Region United States
Timezone America/New_York (UTC-5.0)
Plans Departing 54
Arriving 24
Stats Elevation 301 ft / 92 m (AMSL)
Location 40.137600° -75.265100°
Runways 1
Magnetic Variation 12.080° W
Sunrise 2019-12-14 12:16:41 UTC / 2019-12-14 07:16:41 Local
Sunset 2019-12-14 21:37:18 UTC / 2019-12-14 16:37:18 Local
Advertisement - Login to hide

Runways

ID Width Length Bearing (true/mag) Surface Threshold Overrun Markings Lighting
06 75 ft / 23 m 3,704 ft / 1,129 m 53.00° / 65.08° ASPHALT 177 ft / 54 m 98 ft / 30 m APP CENTERLINE EDGE THRESHOLD
24 75 ft / 23 m 3,704 ft / 1,129 m 233.00° / 245.08° ASPHALT 0 ft / 0 m 0 ft / 0 m APP CENTERLINE EDGE THRESHOLD

Map

Weather


0- 5 10 15 20 25 30 35+ Temperature / °C

Clouds and Precipitation
Forecast for 2019-12-15 00:00 UTC. Updated 6 hours ago

Ground ~20,000 ft ~40,000 ft Winds

METAR

KLOM 150255Z AUTO 27008G19KT 10SM OVC031 06/01 A2946 RMK AO2 T00590010

TAF

Not found

Frequencies

Departure 126.85 MHz Philadelphia Departure
Unicom 123.00 MHz Wings Field Unicom
Approach 126.85 MHz Philadelphia Approach
Recorded 118.93 MHz Wings Field AWOS
Warning: Do not use this data for real-world aviation or navigation. No guarantee of current accuracy is given.